Time;durP1;ratioP1;P1;durP2;ratioP2;P2;SDS_P1;SDS_P2;PMS_P1;PMS_P2;Temp;Humidity;BMP_temperature;BMP_pressure;BME280_temperature;BME280_humidity;BME280_pressure;Samples;Min_cycle;Max_cycle;Signal;HPM_P1;HPM_P2
2024/02/29 00:00:25;;;;;;;35.47;18.48;;;;;;;7.54;100.00;97880.19;5111284;28;20026;-81
2024/02/29 00:02:51;;;;;;;39.17;17.58;;;;;;;7.56;100.00;97884.53;5111703;28;20051;-82
2024/02/29 00:05:17;;;;;;;34.53;16.10;;;;;;;7.59;100.00;97902.16;5111096;28;20111;-81
2024/02/29 00:07:43;;;;;;;39.08;19.27;;;;;;;7.39;100.00;97883.53;5094299;28;20020;-81
2024/02/29 00:10:08;;;;;;;40.83;17.70;;;;;;;7.42;100.00;97897.56;5093654;28;20482;-80
2024/02/29 00:12:34;;;;;;;49.72;20.23;;;;;;;7.47;100.00;97900.03;5110824;28;20071;-82
2024/02/29 00:15:00;;;;;;;42.13;19.60;;;;;;;7.43;100.00;97893.97;5110873;28;20038;-82
2024/02/29 00:17:25;;;;;;;38.60;18.23;;;;;;;7.42;100.00;97894.03;5093656;28;20031;-81
2024/02/29 00:19:51;;;;;;;37.65;18.08;;;;;;;7.47;100.00;97903.56;5094082;28;20116;-82
2024/02/29 00:22:17;;;;;;;45.40;19.20;;;;;;;7.43;100.00;97909.06;5093593;28;20038;-80
2024/02/29 00:24:42;;;;;;;44.63;19.23;;;;;;;7.33;100.00;97903.28;5110797;28;20061;-82
2024/02/29 00:27:08;;;;;;;38.67;17.65;;;;;;;7.34;100.00;97899.72;5093626;28;20119;-82
2024/02/29 00:29:34;;;;;;;33.63;17.10;;;;;;;7.31;100.00;97904.28;5093583;28;20030;-82
2024/02/29 00:32:02;;;;;;;43.08;19.23;;;;;;;7.28;100.00;97891.13;5093697;28;20034;-81
2024/02/29 00:34:28;;;;;;;38.35;18.73;;;;;;;7.34;100.00;97893.50;5110403;28;20463;-82
2024/02/29 00:36:55;;;;;;;38.05;19.05;;;;;;;7.36;100.00;97902.28;5110769;28;20066;-81
2024/02/29 00:39:23;;;;;;;42.90;19.08;;;;;;;7.43;100.00;97909.06;5093457;28;20059;-81
2024/02/29 00:41:49;;;;;;;34.10;17.05;;;;;;;7.30;100.00;97908.75;5093491;28;20034;-83
2024/02/29 00:44:15;;;;;;;34.47;16.63;;;;;;;7.20;100.00;97912.72;5111776;28;20407;-82
2024/02/29 00:46:40;;;;;;;30.48;15.20;;;;;;;7.24;100.00;97916.13;5086365;28;20024;-81
2024/02/29 00:49:06;;;;;;;45.10;18.02;;;;;;;7.09;100.00;97907.00;5093360;28;20112;-82
2024/02/29 00:51:32;;;;;;;37.65;18.88;;;;;;;7.13;100.00;97916.59;5080895;28;20031;-81
2024/02/29 00:53:58;;;;;;;38.63;18.42;;;;;;;6.97;100.00;97918.16;5127146;27;20031;-82
2024/02/29 00:56:24;;;;;;;38.13;17.83;;;;;;;6.99;100.00;97925.13;5092885;28;20042;-81
2024/02/29 00:59:14;;;;;;;35.10;16.55;;;;;;;6.98;100.00;97928.72;5110050;28;20454;-82
2024/02/29 01:01:40;;;;;;;35.00;16.60;;;;;;;6.90;100.00;97908.69;5109431;28;20031;-80
2024/02/29 01:04:26;;;;;;;32.70;15.95;;;;;;;6.90;100.00;97908.69;5093138;28;20032;-83
2024/02/29 01:07:22;;;;;;;37.17;17.13;;;;;;;6.86;100.00;97928.38;5075434;28;20477;-81
2024/02/29 01:10:03;;;;;;;;;;;;;;;;;;;;;
2024/02/29 01:12:31;;;;;;;33.78;17.25;;;;;;;6.66;100.00;97878.69;5109508;28;20035;-81
2024/02/29 01:14:57;;;;;;;34.70;16.23;;;;;;;6.79;100.00;97903.84;5110049;28;20506;-81
2024/02/29 01:17:24;;;;;;;33.13;15.75;;;;;;;6.82;100.00;97926.78;5092840;28;20250;-82
2024/02/29 01:19:50;;;;;;;29.38;14.65;;;;;;;6.80;100.00;97928.63;5093004;28;20031;-82
2024/02/29 01:22:15;;;;;;;28.20;14.07;;;;;;;6.90;100.00;97929.97;5092535;28;20027;-81
2024/02/29 01:24:41;;;;;;;46.75;14.98;;;;;;;6.74;100.00;97931.50;5109875;28;20085;-82
2024/02/29 01:27:07;;;;;;;32.65;13.38;;;;;;;6.85;100.00;97934.63;5093050;28;20062;-82
2024/02/29 01:29:32;;;;;;;32.80;13.70;;;;;;;6.82;100.00;97924.97;5092834;28;20122;-82
2024/02/29 01:31:58;;;;;;;27.35;13.65;;;;;;;6.86;100.00;97928.38;5092719;28;20046;-82
2024/02/29 01:34:24;;;;;;;32.10;14.15;;;;;;;6.81;100.00;97939.19;5091665;28;20044;-81
2024/02/29 01:36:49;;;;;;;38.88;14.25;;;;;;;6.66;100.00;97929.19;5092589;28;20114;-81
2024/02/29 01:39:15;;;;;;;35.63;15.13;;;;;;;6.71;100.00;97940.47;5109655;28;20107;-81
2024/02/29 01:41:41;;;;;;;27.30;14.20;;;;;;;6.62;100.00;97940.84;5092611;28;20058;-82
2024/02/29 01:44:07;;;;;;;26.33;14.52;;;;;;;6.66;100.00;97942.47;5092888;28;20051;-82
2024/02/29 01:46:32;;;;;;;26.77;14.43;;;;;;;6.67;100.00;97932.72;5092469;28;20491;-82
2024/02/29 01:48:58;;;;;;;29.05;14.00;;;;;;;6.61;100.00;97931.16;5092874;28;20054;-81
2024/02/29 01:51:25;;;;;;;35.35;14.07;;;;;;;6.57;100.00;97931.34;5092496;28;20042;-83
2024/02/29 01:53:51;;;;;;;34.15;14.73;;;;;;;6.58;100.00;97912.69;5109820;28;20491;-82
2024/02/29 01:56:18;;;;;;;33.13;15.73;;;;;;;6.58;100.00;97925.09;5091958;28;20049;-82
2024/02/29 01:58:44;;;;;;;31.98;15.13;;;;;;;6.63;100.00;97931.09;5092769;28;20097;-82
2024/02/29 02:01:10;;;;;;;33.92;14.95;;;;;;;6.62;100.00;97930.22;5092523;28;20039;-82
2024/02/29 02:03:35;;;;;;;33.95;15.88;;;;;;;6.63;100.00;97931.09;5095687;28;20494;-83
2024/02/29 02:06:01;;;;;;;34.40;16.67;;;;;;;6.64;100.00;97936.38;5096607;28;20126;-82
2024/02/29 02:08:30;;;;;;;34.90;17.95;;;;;;;6.71;100.00;97939.63;5096381;28;20486;-82
2024/02/29 02:10:55;;;;;;;38.60;19.42;;;;;;;6.72;100.00;97936.03;5113533;28;20034;-81
2024/02/29 02:13:21;;;;;;;52.90;23.15;;;;;;;6.69;100.00;97937.03;5113087;28;20043;-81
2024/02/29 02:15:47;;;;;;;43.60;21.17;;;;;;;6.66;100.00;97929.19;5113195;28;20028;-81
2024/02/29 02:18:13;;;;;;;36.08;17.95;;;;;;;6.70;100.00;97938.78;5113426;28;20046;-82
2024/02/29 02:20:38;;;;;;;36.33;17.42;;;;;;;6.50;100.00;97920.09;5095941;28;20032;-82
2024/02/29 02:23:04;;;;;;;43.88;19.85;;;;;;;6.39;100.00;97917.00;5096029;28;20020;-82
2024/02/29 02:25:30;;;;;;;53.63;21.08;;;;;;;6.37;100.00;97925.00;5095845;28;20035;-82
2024/02/29 02:27:55;;;;;;;45.42;20.80;;;;;;;6.35;100.00;97929.53;5113241;28;20012;-81
2024/02/29 02:30:21;;;;;;;40.05;18.95;;;;;;;6.21;100.00;97929.22;5095784;28;20027;-81
2024/02/29 02:32:46;;;;;;;40.03;18.88;;;;;;;6.23;100.00;97931.78;5095993;28;20558;-81
2024/02/29 02:35:12;;;;;;;42.97;20.00;;;;;;;6.12;100.00;97931.34;5095816;28;20067;-82
2024/02/29 02:37:38;;;;;;;47.53;20.35;;;;;;;6.20;100.00;97934.56;5095846;28;20483;-81
2024/02/29 02:40:05;;;;;;;46.30;20.95;;;;;;;6.24;100.00;97946.81;5095884;28;20027;-82
2024/02/29 02:42:31;;;;;;;46.58;22.27;;;;;;;6.29;100.00;97953.69;5112551;28;20135;-82
2024/02/29 02:44:57;;;;;;;51.00;24.20;;;;;;;6.33;100.00;97960.63;5122894;27;20499;-82
2024/02/29 02:47:22;;;;;;;40.30;20.55;;;;;;;6.31;100.00;97950.94;5129709;27;20065;-81
2024/02/29 02:49:48;;;;;;;54.10;22.45;;;;;;;6.34;100.00;97949.03;5095489;28;20031;-82
2024/02/29 02:52:14;;;;;;;49.80;23.42;;;;;;;6.39;100.00;97959.50;5112879;28;20020;-82
2024/02/29 02:54:40;;;;;;;48.90;21.90;;;;;;;6.36;100.00;97954.31;5095628;28;20108;-82
2024/02/29 02:57:06;;;;;;;48.42;24.17;;;;;;;6.40;100.00;97962.09;5095671;28;20375;-83
2024/02/29 02:59:31;;;;;;;57.40;24.42;;;;;;;6.41;100.00;97971.81;5095580;28;20035;-81
2024/02/29 03:01:57;;;;;;;50.03;24.27;;;;;;;6.32;100.00;97969.50;5095413;28;20402;-82
2024/02/29 03:04:22;;;;;;;51.45;23.90;;;;;;;6.36;100.00;97964.94;5113869;28;20410;-82
2024/02/29 03:06:48;;;;;;;57.88;25.75;;;;;;;6.41;100.00;97973.59;5095184;28;20028;-82
2024/02/29 03:09:14;;;;;;;54.58;26.23;;;;;;;6.36;100.00;97972.91;5092063;28;20020;-82
2024/02/29 03:11:39;;;;;;;51.22;23.48;;;;;;;6.34;100.00;97966.78;5085006;28;20083;-82
2024/02/29 03:14:05;;;;;;;50.55;23.38;;;;;;;6.35;100.00;97960.53;5111729;28;20433;-82
2024/02/29 03:16:35;;;;;;;43.45;21.85;;;;;;;6.36;100.00;97954.31;5094974;28;20031;-81
2024/02/29 03:19:00;;;;;;;51.38;21.42;;;;;;;6.30;100.00;97949.25;5111903;28;20081;-81
2024/02/29 03:21:28;;;;;;;44.90;20.20;;;;;;;6.24;100.00;97949.47;5112014;28;20023;-82
2024/02/29 03:23:53;;;;;;;46.50;21.63;;;;;;;6.20;100.00;97953.16;5111867;28;20407;-82
2024/02/29 03:26:19;;;;;;;45.97;21.50;;;;;;;6.12;100.00;97932.19;5094956;28;20035;-82
2024/02/29 03:28:45;;;;;;;46.65;22.35;;;;;;;5.91;100.00;97927.69;5111766;28;20031;-83
2024/02/29 03:31:14;;;;;;;57.25;23.90;;;;;;;5.87;100.00;97928.75;5111800;28;20462;-81
2024/02/29 03:33:40;;;;;;;53.78;24.17;;;;;;;5.99;100.00;97934.47;5094409;28;20038;-81
2024/02/29 03:36:06;;;;;;;45.60;21.92;;;;;;;5.95;100.00;97927.53;5094710;28;20036;-82
2024/02/29 03:38:32;;;;;;;53.63;24.33;;;;;;;6.05;100.00;97930.72;5094689;28;20027;-83
2024/02/29 03:40:58;;;;;;;47.97;24.20;;;;;;;6.20;100.00;97931.91;5094529;28;20023;-82
2024/02/29 03:43:24;;;;;;;53.20;24.10;;;;;;;6.17;100.00;97926.72;5111565;28;20533;-81
2024/02/29 03:45:50;;;;;;;53.35;25.58;;;;;;;6.22;100.00;97922.97;5094122;28;20027;-81
2024/02/29 03:48:15;;;;;;;55.90;24.65;;;;;;;6.15;100.00;97907.34;5111014;28;20032;-82
2024/02/29 03:50:41;;;;;;;53.60;24.73;;;;;;;6.25;100.00;97924.63;5111271;28;20027;-81
2024/02/29 03:53:07;;;;;;;54.40;24.70;;;;;;;6.29;100.00;97921.81;5094306;28;20046;-81
2024/02/29 03:55:32;;;;;;;51.85;23.23;;;;;;;6.30;100.00;97922.69;5112681;28;20485;-80
2024/02/29 03:57:58;;;;;;;51.20;25.00;;;;;;;6.34;100.00;97916.28;5094121;28;20088;-83
2024/02/29 04:00:23;;;;;;;55.60;25.25;;;;;;;6.28;100.00;97909.44;5094383;28;20121;-82
2024/02/29 04:02:49;;;;;;;55.20;26.00;;;;;;;6.36;100.00;97928.63;5111050;28;20023;-82
2024/02/29 04:05:15;;;;;;;47.60;25.38;;;;;;;6.21;100.00;97923.03;5094412;28;20114;-81
2024/02/29 04:07:41;;;;;;;52.67;24.92;;;;;;;6.29;100.00;97931.56;5112235;28;20440;-80
2024/02/29 04:10:07;;;;;;;52.55;24.77;;;;;;;6.32;100.00;97920.81;5093879;28;20019;-82
2024/02/29 04:12:33;;;;;;;57.90;27.23;;;;;;;6.25;100.00;97919.31;5093747;28;20048;-82
2024/02/29 04:15:01;;;;;;;53.95;26.00;;;;;;;6.27;100.00;97923.66;5093348;28;20698;-82
2024/02/29 04:17:27;;;;;;;51.95;26.38;;;;;;;6.27;100.00;97922.78;5111230;28;20480;-83
2024/02/29 04:19:53;;;;;;;56.47;26.45;;;;;;;6.31;100.00;97924.38;5093494;28;20035;-82
2024/02/29 04:22:18;;;;;;;48.88;24.60;;;;;;;6.35;100.00;97923.34;5110953;28;20746;-81
2024/02/29 04:24:44;;;;;;;49.22;24.50;;;;;;;6.30;100.00;97912.91;5092783;28;20088;-79
2024/02/29 04:27:09;;;;;;;54.60;25.25;;;;;;;6.40;100.00;97919.56;5093461;28;20027;-82
2024/02/29 04:29:35;;;;;;;47.75;23.58;;;;;;;6.41;100.00;97923.09;5110721;28;20023;-83
2024/02/29 04:32:01;;;;;;;47.63;23.50;;;;;;;6.45;100.00;97922.94;5093555;28;20395;-84
2024/02/29 04:34:27;;;;;;;43.92;22.95;;;;;;;6.47;100.00;97914.88;5093744;28;20020;-87
2024/02/29 04:36:53;;;;;;;52.38;23.67;;;;;;;6.58;100.00;97925.09;5094118;28;20439;-84
2024/02/29 04:39:18;;;;;;;55.65;22.77;;;;;;;6.51;100.00;97925.34;5093632;28;20030;-83
2024/02/29 04:41:45;;;;;;;50.15;23.88;;;;;;;6.56;100.00;97922.50;5094012;28;20100;-82
2024/02/29 04:44:14;;;;;;;57.95;23.33;;;;;;;6.53;100.00;97919.97;5110916;28;20020;-83
2024/02/29 04:46:55;;;;;;;52.63;23.50;;;;;;;6.60;100.00;97924.13;5094221;28;20019;-83
2024/02/29 04:49:21;;;;;;;52.17;24.20;;;;;;;6.53;100.00;97919.97;5110938;28;20028;-82
2024/02/29 04:51:47;;;;;;;57.90;25.23;;;;;;;6.63;100.00;97923.13;5110678;28;20551;-81
2024/02/29 04:54:19;;;;;;;59.53;26.02;;;;;;;6.49;100.00;97892.63;5094246;28;20418;-85
2024/02/29 04:56:45;;;;;;;59.72;27.38;;;;;;;6.63;100.00;97924.00;5110611;28;20031;-85
2024/02/29 04:59:12;;;;;;;58.03;27.90;;;;;;;6.53;100.00;97917.31;5093959;28;20031;-83
2024/02/29 05:01:38;;;;;;;61.13;26.92;;;;;;;6.42;100.00;97906.25;5093670;28;20122;-83
2024/02/29 05:04:06;;;;;;;55.03;25.73;;;;;;;6.49;100.00;97908.59;5093572;28;20476;-85
2024/02/29 05:06:32;;;;;;;70.53;27.98;;;;;;;6.51;100.00;97919.16;5111391;28;20037;-83
2024/02/29 05:08:58;;;;;;;53.00;25.92;;;;;;;6.52;100.00;97908.47;5093161;28;20039;-82
2024/02/29 05:11:23;;;;;;;58.60;25.33;;;;;;;6.54;100.00;97921.69;5110264;28;20031;-82
2024/02/29 05:13:49;;;;;;;57.97;27.58;;;;;;;6.51;100.00;97919.16;5092856;28;20046;-82
2024/02/29 05:16:16;;;;;;;52.25;26.50;;;;;;;6.46;100.00;97908.72;5110796;28;20046;-84
2024/02/29 05:18:42;;;;;;;58.85;27.15;;;;;;;6.45;100.00;97922.94;5093892;28;20027;-83
2024/02/29 05:21:08;;;;;;;71.93;28.40;;;;;;;6.42;100.00;97917.75;5110803;28;20031;-85
2024/02/29 05:23:33;;;;;;;60.03;29.70;;;;;;;6.51;100.00;97927.13;5093115;28;20023;-82
2024/02/29 05:25:59;;;;;;;51.88;25.92;;;;;;;6.49;100.00;97921.03;5092863;28;20482;-83
2024/02/29 05:28:26;;;;;;;58.63;26.23;;;;;;;6.46;100.00;97926.47;5092975;28;20054;-83
2024/02/29 05:30:51;;;;;;;101.85;47.60;;;;;;;6.37;100.00;97919.69;5090058;28;20035;-83
2024/02/29 05:33:17;;;;;;;66.68;31.88;;;;;;;6.37;100.00;97927.66;5100406;28;20085;-82
2024/02/29 05:35:48;;;;;;;56.30;26.33;;;;;;;6.49;100.00;97913.06;5093290;28;20119;-82
2024/02/29 05:38:15;;;;;;;74.43;27.55;;;;;;;6.42;100.00;97911.56;5097096;28;20031;-83
2024/02/29 05:40:40;;;;;;;72.13;28.10;;;;;;;6.34;100.00;97903.00;5097010;28;20077;-84
2024/02/29 05:43:06;;;;;;;57.60;28.38;;;;;;;6.36;100.00;97911.81;5096854;28;20059;-83
2024/02/29 05:45:31;;;;;;;82.68;29.05;;;;;;;6.41;100.00;97915.13;5096029;28;20035;-84
2024/02/29 05:47:57;;;;;;;70.00;26.13;;;;;;;6.41;100.00;97917.78;5096746;28;20077;-73
2024/02/29 05:50:22;;;;;;;66.97;28.27;;;;;;;6.52;100.00;97923.56;5114926;28;20032;-83
2024/02/29 05:52:48;;;;;;;54.13;24.73;;;;;;;6.48;100.00;97906.00;5097249;28;20081;-84
2024/02/29 05:55:14;;;;;;;51.97;22.75;;;;;;;6.60;100.00;97932.09;5112698;28;20092;-90
2024/02/29 05:57:39;;;;;;;68.53;26.65;;;;;;;6.60;100.00;97923.25;5099324;28;20123;-85
2024/02/29 06:00:06;;;;;;;69.22;30.33;;;;;;;6.58;100.00;97931.28;5095872;28;20062;-82
2024/02/29 06:02:31;;;;;;;65.82;27.00;;;;;;;6.66;100.00;97925.66;5095804;28;20027;-83
2024/02/29 06:04:58;;;;;;;67.95;26.35;;;;;;;6.74;100.00;97932.38;5095591;28;20046;-83
2024/02/29 06:07:24;;;;;;;61.10;25.92;;;;;;;6.86;100.00;97937.19;5094830;28;20405;-84
2024/02/29 06:09:53;;;;;;;75.80;28.67;;;;;;;6.99;100.00;97946.41;5096679;28;20027;-87
2024/02/29 06:12:18;;;;;;;64.13;26.90;;;;;;;6.93;100.00;97937.81;5097020;28;20039;-84
2024/02/29 06:14:44;;;;;;;93.63;36.20;;;;;;;7.00;100.00;97942.84;5114857;28;20032;-84
2024/02/29 06:17:10;;;;;;;76.25;31.20;;;;;;;7.03;100.00;97942.72;5096408;28;20498;-82
2024/02/29 06:19:38;;;;;;;77.28;28.77;;;;;;;7.06;100.00;97934.59;5094944;28;20498;-82
2024/02/29 06:22:07;;;;;;;136.88;42.72;;;;;;;7.17;100.00;97943.94;5095496;28;20051;-79
2024/02/29 06:24:33;;;;;;;326.17;109.47;;;;;;;7.18;100.00;97932.34;5114365;28;20192;-84
2024/02/29 06:26:58;;;;;;;289.70;102.53;;;;;;;7.18;100.00;97925.22;5098341;28;20031;-83
2024/02/29 06:29:24;;;;;;;392.17;137.45;;;;;;;7.24;100.00;97929.41;5098923;28;20028;-84
2024/02/29 06:31:51;;;;;;;343.10;126.32;;;;;;;7.37;100.00;97936.81;5113398;28;20523;-83
2024/02/29 06:34:18;;;;;;;326.90;119.50;;;;;;;7.50;100.00;97934.50;5113133;28;20027;-83
2024/02/29 06:36:44;;;;;;;321.17;109.68;;;;;;;7.64;100.00;97932.09;5095717;28;20023;-84
2024/02/29 06:39:10;;;;;;;211.20;76.25;;;;;;;7.71;100.00;97933.56;5095718;28;20042;-83
2024/02/29 06:41:36;;;;;;;309.20;125.07;;;;;;;7.75;100.00;97921.84;5095557;28;20154;-83
2024/02/29 06:44:05;;;;;;;228.30;91.95;;;;;;;7.82;100.00;97933.06;5087568;28;20019;-84
2024/02/29 06:46:30;;;;;;;142.57;53.38;;;;;;;7.90;100.00;97929.16;5095731;28;20023;-86
2024/02/29 06:48:56;;;;;;;109.22;44.30;;;;;;;7.84;100.00;97923.22;5111868;28;20108;-82
2024/02/29 06:51:23;;;;;;;110.18;40.47;;;;;;;8.03;100.00;97919.63;5112414;28;20453;-82
2024/02/29 06:53:49;;;;;;;66.63;28.98;;;;;;;8.16;100.00;97925.25;5095170;28;20021;-83
2024/02/29 06:56:14;;;;;;;76.45;32.97;;;;;;;8.28;100.00;97929.19;5095420;28;20026;-86
2024/02/29 06:58:42;;;;;;;58.15;26.27;;;;;;;8.35;100.00;97917.31;5112362;28;20111;-85
2024/02/29 07:01:08;;;;;;;87.57;31.30;;;;;;;8.54;100.00;97923.50;5095596;28;20077;-82
2024/02/29 07:03:34;;;;;;;66.18;29.80;;;;;;;8.60;100.00;97910.75;5094893;28;20467;-84
2024/02/29 07:06:00;;;;;;;70.53;27.77;;;;;;;8.58;100.00;97909.94;5095480;28;20027;-82
2024/02/29 07:08:25;;;;;;;76.97;33.60;;;;;;;8.57;100.00;97902.91;5113308;28;20505;-83
2024/02/29 07:10:51;;;;;;;55.90;26.23;;;;;;;8.82;100.00;97915.91;5094728;28;20058;-83
2024/02/29 07:13:17;;;;;;;54.10;26.98;;;;;;;8.92;100.00;97924.31;5094670;28;20132;-83
2024/02/29 07:15:42;;;;;;;69.38;27.55;;;;;;;9.03;100.00;97914.84;5112395;28;20030;-84
2024/02/29 07:18:11;;;;;;;60.90;29.70;;;;;;;9.11;100.00;97915.31;5094709;28;20024;-82
2024/02/29 07:20:37;;;;;;;53.85;25.52;;;;;;;9.19;100.00;97926.47;5112032;28;20514;-81
2024/02/29 07:23:02;;;;;;;65.53;26.77;;;;;;;9.19;100.00;97907.81;5095068;28;20031;-82
2024/02/29 07:25:28;;;;;;;68.45;26.55;;;;;;;9.35;100.00;97912.34;5094647;28;20056;-82
2024/02/29 07:27:57;;;;;;;73.03;28.60;;;;;;;9.46;100.00;97907.31;5111899;28;20147;-82
2024/02/29 07:30:22;;;;;;;67.35;30.73;;;;;;;9.56;100.00;97908.56;5095448;28;20034;-82
2024/02/29 07:32:48;;;;;;;74.00;31.60;;;;;;;9.62;100.00;97901.09;5111735;28;20023;-80
2024/02/29 07:35:17;;;;;;;59.22;29.42;;;;;;;9.78;100.00;97906.50;5094561;28;20020;-82
2024/02/29 07:37:46;;;;;;;77.47;31.27;;;;;;;9.66;100.00;97899.97;5095175;28;20031;-81
2024/02/29 07:40:12;;;;;;;81.03;33.78;;;;;;;9.54;100.00;97899.75;5094690;28;20027;-81
2024/02/29 07:42:41;;;;;;;86.65;37.70;;;;;;;9.44;100.00;97907.41;5111582;28;20497;-81
2024/02/29 07:45:07;;;;;;;90.30;39.55;;;;;;;9.69;100.00;97907.84;5094982;28;20458;-81
2024/02/29 07:47:33;;;;;;;101.72;44.90;;;;;;;9.70;100.00;97896.22;5111348;28;20118;-82
2024/02/29 07:49:59;;;;;;;112.30;51.50;;;;;;;9.81;100.00;97907.19;5111472;28;20078;-81
2024/02/29 07:52:25;;;;;;;118.93;50.13;;;;;;;9.76;100.00;97913.72;5091238;28;20117;-82
2024/02/29 07:54:51;;;;;;;108.70;49.72;;;;;;;9.73;100.00;97905.88;5090893;28;20161;-82
2024/02/29 07:57:17;;;;;;;92.82;43.90;;;;;;;9.94;100.00;97902.06;5086629;28;20038;-86
2024/02/29 07:59:43;;;;;;;86.55;37.25;;;;;;;9.85;100.00;97907.88;5096359;28;20081;-83
2024/02/29 08:02:09;;;;;;;76.28;38.72;;;;;;;9.98;100.00;97903.63;5111743;28;20035;-83
2024/02/29 08:04:36;;;;;;;87.68;37.95;;;;;;;10.13;100.00;97908.16;5094160;28;20059;-81
2024/02/29 08:07:02;;;;;;;96.43;38.95;;;;;;;10.25;100.00;97906.63;5094186;28;20482;-82
2024/02/29 08:09:28;;;;;;;83.93;35.95;;;;;;;10.22;100.00;97896.97;5094042;28;20558;-83
2024/02/29 08:11:54;;;;;;;88.13;36.00;;;;;;;9.78;100.00;97902.00;5111117;28;20102;-81
2024/02/29 08:14:20;;;;;;;74.55;35.03;;;;;;;9.86;100.00;97904.28;5093938;28;20112;-82
2024/02/29 08:16:46;;;;;;;82.80;35.63;;;;;;;9.80;100.00;97909.97;5093936;28;20035;-81
2024/02/29 08:19:12;;;;;;;71.97;35.95;;;;;;;9.99;100.00;97909.84;5093821;28;20085;-82
2024/02/29 08:21:37;;;;;;;70.72;33.88;;;;;;;10.07;100.00;97907.59;5110763;28;20027;-81
2024/02/29 08:24:04;;;;;;;72.75;34.00;;;;;;;10.44;100.00;97910.03;5093728;28;20020;-81
2024/02/29 08:26:29;;;;;;;80.15;38.70;;;;;;;10.38;100.00;97901.47;5093967;28;20066;-82
2024/02/29 08:28:55;;;;;;;82.97;37.72;;;;;;;10.31;100.00;97884.91;5110766;28;20067;-81
2024/02/29 08:31:21;;;;;;;83.80;39.85;;;;;;;10.46;100.00;97899.25;5093633;28;20054;-83
2024/02/29 08:33:47;;;;;;;77.10;38.25;;;;;;;10.54;100.00;97887.16;5110353;28;20043;-80
2024/02/29 08:36:13;;;;;;;83.78;37.85;;;;;;;10.68;100.00;97887.25;5110546;28;20466;-81
2024/02/29 08:38:39;;;;;;;113.28;53.15;;;;;;;11.00;100.00;97880.03;5093543;28;20106;-82
2024/02/29 08:41:04;;;;;;;96.72;37.20;;;;;;;11.19;100.00;97879.84;5093389;28;20034;-82
2024/02/29 08:43:31;;;;;;;84.88;38.92;;;;;;;11.39;100.00;97875.00;5093415;28;20501;-82
2024/02/29 08:45:59;;;;;;;83.88;38.88;;;;;;;11.60;100.00;97863.94;5090434;28;20122;-81
2024/02/29 08:48:25;;;;;;;86.05;39.95;;;;;;;11.80;100.00;97856.44;5110565;28;20073;-82
2024/02/29 08:50:51;;;;;;;82.70;41.40;;;;;;;11.96;100.00;97853.69;5093220;28;20031;-82
2024/02/29 08:53:16;;;;;;;86.57;40.63;;;;;;;12.25;100.00;97867.91;5110152;28;20103;-82
2024/02/29 08:55:42;;;;;;;89.03;42.90;;;;;;;12.29;100.00;97853.34;5110430;28;20060;-81
2024/02/29 08:58:10;;;;;;;86.22;41.88;;;;;;;12.55;100.00;97840.97;5092987;28;20043;-82
2024/02/29 09:00:36;;;;;;;82.75;41.60;;;;;;;12.64;100.00;97848.41;5093316;28;20032;-83
2024/02/29 09:03:01;;;;;;;96.93;42.72;;;;;;;12.69;100.00;97838.22;5092812;28;20561;-81
2024/02/29 09:05:27;;;;;;;84.57;40.97;;;;;;;12.72;100.00;97835.34;5092607;28;20043;-81
2024/02/29 09:07:52;;;;;;;76.55;41.28;;;;;;;12.91;100.00;97841.22;5092455;28;20035;-80
2024/02/29 09:10:18;;;;;;;87.13;40.67;;;;;;;12.93;100.00;97832.09;5092677;28;20038;-80
2024/02/29 09:12:44;;;;;;;91.45;41.58;;;;;;;13.24;100.00;97838.97;5093085;28;20112;-83
2024/02/29 09:15:10;;;;;;;85.97;44.30;;;;;;;13.23;100.00;97839.94;5092519;28;20528;-80
2024/02/29 09:17:35;;;;;;;102.88;45.00;;;;;;;12.94;100.00;97824.91;5093557;28;20039;-82
2024/02/29 09:20:01;;;;;;;88.07;40.53;;;;;;;12.59;100.00;97826.34;5093186;28;20422;-82
2024/02/29 09:22:26;;;;;;;68.95;33.17;;;;;;;12.60;100.00;97833.47;5110370;28;20032;-83
2024/02/29 09:24:53;;;;;;;66.60;32.65;;;;;;;12.76;100.00;97821.63;5093240;28;20501;-82
2024/02/29 09:27:19;;;;;;;87.03;35.63;;;;;;;13.05;100.00;97827.72;5093712;28;20039;-82
2024/02/29 09:29:44;;;;;;;55.90;29.65;;;;;;;13.15;100.00;97817.25;5093159;28;20130;-82
2024/02/29 09:32:10;;;;;;;65.53;27.20;;;;;;;13.07;100.00;97796.25;5109719;28;20100;-82
2024/02/29 09:34:37;;;;;;;56.08;27.48;;;;;;;12.65;100.00;97801.78;5093202;28;20093;-82
2024/02/29 09:37:04;;;;;;;53.88;27.17;;;;;;;12.67;100.00;97814.19;5111465;28;20061;-82
2024/02/29 09:39:30;;;;;;;55.13;28.33;;;;;;;12.70;100.00;97800.56;5093651;28;20035;-83
2024/02/29 09:41:56;;;;;;;53.58;26.65;;;;;;;13.03;100.00;97800.09;5093759;28;20039;-82
2024/02/29 09:44:21;;;;;;;57.17;27.20;;;;;;;13.07;100.00;97780.16;5093092;28;20024;-82
2024/02/29 09:46:50;;;;;;;55.38;25.50;;;;;;;13.61;100.00;97788.91;5093548;28;20036;-83
2024/02/29 09:49:15;;;;;;;68.03;34.15;;;;;;;13.64;100.00;97788.69;5093569;28;20039;-82
2024/02/29 09:51:41;;;;;;;46.50;22.50;;;;;;;14.21;100.00;97802.53;5093168;28;20028;-82
2024/02/29 09:54:16;;;;;;;53.15;26.80;;;;;;;14.52;100.00;97802.00;5111253;28;20058;-82
2024/02/29 09:56:41;;;;;;;41.60;20.40;;;;;;;14.78;100.00;97783.06;5093453;28;20414;-83
2024/02/29 09:59:10;;;;;;;37.92;19.67;;;;;;;15.18;100.00;97779.06;5092775;28;20038;-81
2024/02/29 10:01:35;;;;;;;34.25;18.83;;;;;;;15.39;100.00;97776.53;5092473;28;20494;-82
2024/02/29 10:04:20;;;;;;;57.70;29.05;;;;;;;15.26;100.00;97779.34;5092958;28;20030;-81
2024/02/29 10:06:45;;;;;;;47.40;19.58;;;;;;;15.67;100.00;97784.25;5101526;28;20517;-82
2024/02/29 10:09:11;;;;;;;42.03;18.58;;;;;;;15.30;100.00;97788.91;5093050;28;20019;-82
2024/02/29 10:11:40;;;;;;;38.90;18.70;;;;;;;15.42;100.00;97777.19;5093673;28;20035;-82
2024/02/29 10:14:21;;;;;;;39.17;16.50;;;;;;;15.35;100.00;97789.41;5093674;28;20054;-84
2024/02/29 10:16:54;;;;;;;34.08;15.93;;;;;;;15.22;100.00;97772.47;5094440;28;20100;-82
2024/02/29 10:19:21;;;;;;;34.53;18.98;;;;;;;15.42;100.00;97773.63;5109971;28;20115;-83
2024/02/29 10:21:47;;;;;;;57.15;26.83;;;;;;;15.81;100.00;97791.25;5093046;28;20024;-82
2024/02/29 10:24:13;;;;;;;47.17;22.10;;;;;;;16.10;100.00;97782.53;5095288;28;20028;-82
2024/02/29 10:26:38;;;;;;;28.30;15.38;;;;;;;15.97;100.00;97786.34;5096564;28;20080;-83
2024/02/29 10:29:05;;;;;;;31.48;15.40;;;;;;;16.29;100.00;97776.53;5096556;28;20032;-82
2024/02/29 10:31:31;;;;;;;34.13;15.80;;;;;;;16.08;100.00;97772.88;5113484;28;20019;-82
2024/02/29 10:33:56;;;;;;;37.15;16.10;;;;;;;16.03;100.00;97765.13;5096159;28;20462;-81
2024/02/29 10:36:23;;;;;;;37.95;18.83;;;;;;;16.00;100.00;97769.91;5096081;28;20102;-80
2024/02/29 10:38:49;;;;;;;38.28;16.73;;;;;;;15.93;100.00;97757.91;5095874;28;20023;-81
2024/02/29 10:41:15;;;;;;;39.58;18.73;;;;;;;15.57;100.00;97751.75;5096325;28;20028;-81
2024/02/29 10:43:45;;;;;;;32.28;16.60;;;;;;;15.79;100.00;97775.19;5113412;28;20037;-81
2024/02/29 10:46:11;;;;;;;36.80;20.38;;;;;;;15.60;100.00;97766.81;5096195;28;20035;-82
2024/02/29 10:48:51;;;;;;;33.40;15.05;;;;;;;15.72;100.00;97771.25;5096092;28;20027;-83
2024/02/29 10:51:44;;;;;;;24.50;13.05;;;;;;;16.00;100.00;97759.09;5096176;28;20167;-82
2024/02/29 10:54:39;;;;;;;28.10;13.30;;;;;;;15.94;100.00;97755.06;5095605;28;20387;-82
2024/02/29 10:57:15;;;;;;;27.00;14.55;;;;;;;16.18;100.00;97758.47;5101700;28;20051;-81
2024/02/29 10:59:42;;;;;;;26.58;14.63;;;;;;;16.06;100.00;97753.22;5095899;28;20027;-82
2024/02/29 11:02:07;;;;;;;38.85;16.55;;;;;;;16.14;100.00;97756.19;5112799;28;20531;-82
2024/02/29 11:04:33;;;;;;;33.63;16.23;;;;;;;16.24;100.00;97736.38;5095836;28;20070;-82
2024/02/29 11:06:59;;;;;;;33.10;16.45;;;;;;;16.72;100.00;97738.78;5095443;28;20164;-82
2024/02/29 11:09:25;;;;;;;29.02;16.05;;;;;;;16.75;100.00;97731.28;5095356;28;20383;-80
2024/02/29 11:12:10;;;;;;;30.65;16.13;;;;;;;16.67;100.00;97732.91;5095513;28;20019;-81